sensor_id;sensor_type;location;lat;lon;timestamp;P1;durP1;ratioP1;P2;durP2;ratioP2
51174;SDS011;37240;50.104;20.010;2023-07-16T00:04:22;9.70;;;5.97;;
51174;SDS011;37240;50.104;20.010;2023-07-16T00:09:23;58.33;;;35.13;;
51174;SDS011;37240;50.104;20.010;2023-07-16T00:14:24;28.23;;;17.98;;
51174;SDS011;37240;50.104;20.010;2023-07-16T00:19:24;35.83;;;10.48;;
51174;SDS011;37240;50.104;20.010;2023-07-16T00:24:25;9.10;;;7.47;;
51174;SDS011;37240;50.104;20.010;2023-07-16T00:29:25;20.42;;;14.98;;
51174;SDS011;37240;50.104;20.010;2023-07-16T00:34:26;14.80;;;9.85;;
51174;SDS011;37240;50.104;20.010;2023-07-16T00:39:30;9.93;;;7.70;;
51174;SDS011;37240;50.104;20.010;2023-07-16T00:44:30;13.10;;;8.10;;
51174;SDS011;37240;50.104;20.010;2023-07-16T00:49:31;11.80;;;6.93;;
51174;SDS011;37240;50.104;20.010;2023-07-16T00:54:32;10.10;;;7.25;;
51174;SDS011;37240;50.104;20.010;2023-07-16T00:59:32;9.60;;;6.35;;
51174;SDS011;37240;50.104;20.010;2023-07-16T01:04:33;11.85;;;6.88;;
51174;SDS011;37240;50.104;20.010;2023-07-16T01:09:33;18.63;;;7.22;;
51174;SDS011;37240;50.104;20.010;2023-07-16T01:14:36;17.17;;;7.90;;
51174;SDS011;37240;50.104;20.010;2023-07-16T01:19:39;14.70;;;7.30;;
51174;SDS011;37240;50.104;20.010;2023-07-16T01:29:41;24.13;;;14.90;;
51174;SDS011;37240;50.104;20.010;2023-07-16T01:34:46;53.35;;;31.67;;
51174;SDS011;37240;50.104;20.010;2023-07-16T01:39:48;27.70;;;17.73;;
51174;SDS011;37240;50.104;20.010;2023-07-16T01:44:49;16.88;;;10.75;;
51174;SDS011;37240;50.104;20.010;2023-07-16T01:49:49;9.82;;;7.50;;
51174;SDS011;37240;50.104;20.010;2023-07-16T01:54:50;8.05;;;6.15;;
51174;SDS011;37240;50.104;20.010;2023-07-16T01:59:50;9.98;;;6.85;;
51174;SDS011;37240;50.104;20.010;2023-07-16T02:04:51;11.20;;;6.80;;
51174;SDS011;37240;50.104;20.010;2023-07-16T02:09:51;9.32;;;5.53;;
51174;SDS011;37240;50.104;20.010;2023-07-16T02:14:52;11.77;;;6.47;;
51174;SDS011;37240;50.104;20.010;2023-07-16T02:19:52;10.02;;;6.13;;
51174;SDS011;37240;50.104;20.010;2023-07-16T02:24:53;8.98;;;6.63;;
51174;SDS011;37240;50.104;20.010;2023-07-16T02:29:54;8.18;;;5.70;;
51174;SDS011;37240;50.104;20.010;2023-07-16T02:34:54;10.27;;;6.47;;
51174;SDS011;37240;50.104;20.010;2023-07-16T02:39:55;6.38;;;5.68;;
51174;SDS011;37240;50.104;20.010;2023-07-16T02:44:55;9.13;;;6.13;;
51174;SDS011;37240;50.104;20.010;2023-07-16T02:49:56;7.05;;;4.63;;
51174;SDS011;37240;50.104;20.010;2023-07-16T02:54:56;5.40;;;4.90;;
51174;SDS011;37240;50.104;20.010;2023-07-16T02:59:57;9.63;;;5.63;;
51174;SDS011;37240;50.104;20.010;2023-07-16T03:04:57;13.50;;;5.88;;
51174;SDS011;37240;50.104;20.010;2023-07-16T03:09:58;9.70;;;5.55;;
51174;SDS011;37240;50.104;20.010;2023-07-16T03:15:00;8.93;;;6.00;;
51174;SDS011;37240;50.104;20.010;2023-07-16T03:20:00;15.98;;;7.60;;
51174;SDS011;37240;50.104;20.010;2023-07-16T03:25:02;10.38;;;7.25;;
51174;SDS011;37240;50.104;20.010;2023-07-16T03:30:03;10.25;;;6.82;;
51174;SDS011;37240;50.104;20.010;2023-07-16T03:35:04;7.18;;;5.72;;
51174;SDS011;37240;50.104;20.010;2023-07-16T03:40:14;11.27;;;5.95;;
51174;SDS011;37240;50.104;20.010;2023-07-16T03:45:16;10.88;;;6.00;;
51174;SDS011;37240;50.104;20.010;2023-07-16T03:50:17;10.05;;;5.30;;
51174;SDS011;37240;50.104;20.010;2023-07-16T03:55:18;12.38;;;5.57;;
51174;SDS011;37240;50.104;20.010;2023-07-16T04:00:18;7.78;;;5.68;;
51174;SDS011;37240;50.104;20.010;2023-07-16T04:05:19;8.93;;;5.68;;
51174;SDS011;37240;50.104;20.010;2023-07-16T04:10:19;8.38;;;4.70;;
51174;SDS011;37240;50.104;20.010;2023-07-16T04:15:20;3.88;;;3.58;;
51174;SDS011;37240;50.104;20.010;2023-07-16T04:20:21;7.05;;;4.25;;
51174;SDS011;37240;50.104;20.010;2023-07-16T04:25:21;6.65;;;4.05;;
51174;SDS011;37240;50.104;20.010;2023-07-16T04:30:22;5.72;;;4.53;;
51174;SDS011;37240;50.104;20.010;2023-07-16T04:35:22;5.07;;;4.53;;
51174;SDS011;37240;50.104;20.010;2023-07-16T04:40:23;12.95;;;4.63;;
51174;SDS011;37240;50.104;20.010;2023-07-16T04:45:24;6.63;;;4.38;;
51174;SDS011;37240;50.104;20.010;2023-07-16T04:50:25;4.35;;;3.95;;
51174;SDS011;37240;50.104;20.010;2023-07-16T04:55:25;7.43;;;4.18;;
51174;SDS011;37240;50.104;20.010;2023-07-16T05:00:26;4.05;;;3.65;;
51174;SDS011;37240;50.104;20.010;2023-07-16T05:05:26;7.57;;;3.80;;
51174;SDS011;37240;50.104;20.010;2023-07-16T05:10:27;8.13;;;4.40;;
51174;SDS011;37240;50.104;20.010;2023-07-16T05:15:28;9.13;;;4.55;;
51174;SDS011;37240;50.104;20.010;2023-07-16T05:20:28;7.43;;;3.95;;
51174;SDS011;37240;50.104;20.010;2023-07-16T05:25:29;4.38;;;3.58;;
51174;SDS011;37240;50.104;20.010;2023-07-16T05:30:30;12.32;;;4.38;;
51174;SDS011;37240;50.104;20.010;2023-07-16T05:35:30;6.07;;;4.32;;
51174;SDS011;37240;50.104;20.010;2023-07-16T05:40:31;3.85;;;3.50;;
51174;SDS011;37240;50.104;20.010;2023-07-16T05:45:31;6.50;;;4.90;;
51174;SDS011;37240;50.104;20.010;2023-07-16T05:50:32;8.48;;;4.22;;
51174;SDS011;37240;50.104;20.010;2023-07-16T05:55:32;5.53;;;4.63;;
51174;SDS011;37240;50.104;20.010;2023-07-16T06:00:33;6.70;;;4.40;;
51174;SDS011;37240;50.104;20.010;2023-07-16T06:05:33;6.95;;;5.20;;
51174;SDS011;37240;50.104;20.010;2023-07-16T06:10:34;16.00;;;5.03;;
51174;SDS011;37240;50.104;20.010;2023-07-16T06:15:35;8.52;;;5.47;;
51174;SDS011;37240;50.104;20.010;2023-07-16T06:20:36;6.30;;;4.22;;
51174;SDS011;37240;50.104;20.010;2023-07-16T06:25:37;5.47;;;3.83;;
51174;SDS011;37240;50.104;20.010;2023-07-16T06:30:37;13.07;;;4.00;;
51174;SDS011;37240;50.104;20.010;2023-07-16T06:35:38;9.38;;;4.28;;
51174;SDS011;37240;50.104;20.010;2023-07-16T06:40:38;10.35;;;4.05;;
51174;SDS011;37240;50.104;20.010;2023-07-16T06:45:39;8.32;;;3.58;;
51174;SDS011;37240;50.104;20.010;2023-07-16T06:50:39;8.43;;;4.10;;
51174;SDS011;37240;50.104;20.010;2023-07-16T06:55:40;6.85;;;3.63;;
51174;SDS011;37240;50.104;20.010;2023-07-16T07:00:41;10.35;;;3.80;;
51174;SDS011;37240;50.104;20.010;2023-07-16T07:05:41;4.68;;;3.45;;
51174;SDS011;37240;50.104;20.010;2023-07-16T07:10:42;3.75;;;3.42;;
51174;SDS011;37240;50.104;20.010;2023-07-16T07:15:42;10.43;;;3.73;;
51174;SDS011;37240;50.104;20.010;2023-07-16T07:20:43;14.57;;;3.40;;
51174;SDS011;37240;50.104;20.010;2023-07-16T07:25:47;5.45;;;3.00;;
51174;SDS011;37240;50.104;20.010;2023-07-16T07:30:49;3.80;;;3.25;;
51174;SDS011;37240;50.104;20.010;2023-07-16T07:35:52;3.63;;;3.07;;
51174;SDS011;37240;50.104;20.010;2023-07-16T07:40:53;9.30;;;2.95;;
51174;SDS011;37240;50.104;20.010;2023-07-16T07:45:54;3.05;;;2.85;;
51174;SDS011;37240;50.104;20.010;2023-07-16T07:50:55;3.10;;;2.90;;
51174;SDS011;37240;50.104;20.010;2023-07-16T07:55:55;8.83;;;2.60;;
51174;SDS011;37240;50.104;20.010;2023-07-16T08:00:56;4.90;;;2.70;;
51174;SDS011;37240;50.104;20.010;2023-07-16T08:05:56;2.25;;;2.03;;
51174;SDS011;37240;50.104;20.010;2023-07-16T08:10:57;6.93;;;3.75;;
51174;SDS011;37240;50.104;20.010;2023-07-16T08:15:57;7.05;;;3.35;;
51174;SDS011;37240;50.104;20.010;2023-07-16T08:20:58;2.90;;;2.70;;
51174;SDS011;37240;50.104;20.010;2023-07-16T08:25:58;4.80;;;2.60;;
51174;SDS011;37240;50.104;20.010;2023-07-16T08:30:59;2.90;;;2.70;;
51174;SDS011;37240;50.104;20.010;2023-07-16T08:35:59;7.55;;;3.13;;
51174;SDS011;37240;50.104;20.010;2023-07-16T08:41:00;2.58;;;2.38;;
51174;SDS011;37240;50.104;20.010;2023-07-16T08:46:01;5.03;;;2.63;;
51174;SDS011;37240;50.104;20.010;2023-07-16T08:51:02;2.35;;;2.25;;
51174;SDS011;37240;50.104;20.010;2023-07-16T08:56:03;2.85;;;2.75;;
51174;SDS011;37240;50.104;20.010;2023-07-16T09:01:04;7.82;;;3.25;;
51174;SDS011;37240;50.104;20.010;2023-07-16T09:06:05;3.40;;;2.53;;
51174;SDS011;37240;50.104;20.010;2023-07-16T09:11:10;3.00;;;2.75;;
51174;SDS011;37240;50.104;20.010;2023-07-16T09:16:12;2.85;;;2.58;;
51174;SDS011;37240;50.104;20.010;2023-07-16T09:21:13;9.85;;;2.90;;
51174;SDS011;37240;50.104;20.010;2023-07-16T09:26:14;4.95;;;2.33;;
51174;SDS011;37240;50.104;20.010;2023-07-16T09:31:14;3.92;;;2.60;;
51174;SDS011;37240;50.104;20.010;2023-07-16T09:36:22;4.30;;;2.77;;
51174;SDS011;37240;50.104;20.010;2023-07-16T09:41:24;4.15;;;2.70;;
51174;SDS011;37240;50.104;20.010;2023-07-16T09:46:24;3.30;;;2.10;;
51174;SDS011;37240;50.104;20.010;2023-07-16T09:51:25;4.30;;;2.30;;
51174;SDS011;37240;50.104;20.010;2023-07-16T09:56:40;2.80;;;1.83;;
51174;SDS011;37240;50.104;20.010;2023-07-16T10:01:50;3.58;;;2.08;;
51174;SDS011;37240;50.104;20.010;2023-07-16T10:06:53;10.15;;;2.20;;
51174;SDS011;37240;50.104;20.010;2023-07-16T10:11:54;10.50;;;3.40;;
51174;SDS011;37240;50.104;20.010;2023-07-16T10:17:00;10.43;;;3.17;;
51174;SDS011;37240;50.104;20.010;2023-07-16T10:22:01;2.88;;;2.45;;
51174;SDS011;37240;50.104;20.010;2023-07-16T10:27:02;3.55;;;3.25;;
51174;SDS011;37240;50.104;20.010;2023-07-16T10:32:03;9.43;;;2.90;;
51174;SDS011;37240;50.104;20.010;2023-07-16T10:37:05;3.38;;;2.60;;
51174;SDS011;37240;50.104;20.010;2023-07-16T10:42:06;12.27;;;3.00;;
51174;SDS011;37240;50.104;20.010;2023-07-16T10:47:07;3.30;;;2.67;;
51174;SDS011;37240;50.104;20.010;2023-07-16T10:52:08;6.53;;;2.87;;
51174;SDS011;37240;50.104;20.010;2023-07-16T10:57:10;8.30;;;3.10;;
51174;SDS011;37240;50.104;20.010;2023-07-16T11:02:14;4.75;;;3.10;;
51174;SDS011;37240;50.104;20.010;2023-07-16T11:07:16;4.75;;;3.15;;
51174;SDS011;37240;50.104;20.010;2023-07-16T11:12:17;15.30;;;3.50;;
51174;SDS011;37240;50.104;20.010;2023-07-16T11:17:20;6.60;;;4.13;;
51174;SDS011;37240;50.104;20.010;2023-07-16T11:22:25;5.78;;;3.45;;
51174;SDS011;37240;50.104;20.010;2023-07-16T11:27:27;5.88;;;3.05;;
51174;SDS011;37240;50.104;20.010;2023-07-16T11:32:33;7.05;;;3.28;;
51174;SDS011;37240;50.104;20.010;2023-07-16T11:37:46;6.40;;;3.35;;
51174;SDS011;37240;50.104;20.010;2023-07-16T11:42:47;7.68;;;3.38;;
51174;SDS011;37240;50.104;20.010;2023-07-16T11:47:47;3.42;;;3.22;;
51174;SDS011;37240;50.104;20.010;2023-07-16T11:52:52;4.35;;;3.58;;
51174;SDS011;37240;50.104;20.010;2023-07-16T11:57:53;7.78;;;3.85;;
51174;SDS011;37240;50.104;20.010;2023-07-16T12:02:54;4.03;;;3.67;;
51174;SDS011;37240;50.104;20.010;2023-07-16T12:07:54;4.20;;;3.57;;
51174;SDS011;37240;50.104;20.010;2023-07-16T12:12:55;7.10;;;3.63;;
51174;SDS011;37240;50.104;20.010;2023-07-16T12:17:55;6.70;;;3.75;;
51174;SDS011;37240;50.104;20.010;2023-07-16T12:22:56;4.05;;;3.65;;
51174;SDS011;37240;50.104;20.010;2023-07-16T12:27:56;7.70;;;4.38;;
51174;SDS011;37240;50.104;20.010;2023-07-16T12:32:57;6.55;;;4.03;;
51174;SDS011;37240;50.104;20.010;2023-07-16T12:37:58;9.32;;;4.32;;
51174;SDS011;37240;50.104;20.010;2023-07-16T12:42:58;5.47;;;4.03;;
51174;SDS011;37240;50.104;20.010;2023-07-16T12:47:59;5.28;;;4.78;;
51174;SDS011;37240;50.104;20.010;2023-07-16T12:52:59;9.47;;;3.80;;
51174;SDS011;37240;50.104;20.010;2023-07-16T12:58:00;3.72;;;3.40;;
51174;SDS011;37240;50.104;20.010;2023-07-16T13:03:00;8.80;;;4.50;;
51174;SDS011;37240;50.104;20.010;2023-07-16T13:08:01;5.38;;;4.97;;
51174;SDS011;37240;50.104;20.010;2023-07-16T13:13:01;7.43;;;4.53;;
51174;SDS011;37240;50.104;20.010;2023-07-16T13:18:02;4.93;;;4.63;;
51174;SDS011;37240;50.104;20.010;2023-07-16T13:23:02;16.42;;;6.50;;
51174;SDS011;37240;50.104;20.010;2023-07-16T13:28:03;7.53;;;5.55;;
51174;SDS011;37240;50.104;20.010;2023-07-16T13:33:04;8.38;;;6.18;;
51174;SDS011;37240;50.104;20.010;2023-07-16T13:38:05;6.18;;;5.72;;
51174;SDS011;37240;50.104;20.010;2023-07-16T13:43:05;6.30;;;5.75;;
51174;SDS011;37240;50.104;20.010;2023-07-16T13:48:06;7.45;;;6.80;;
51174;SDS011;37240;50.104;20.010;2023-07-16T13:53:07;6.60;;;6.07;;
51174;SDS011;37240;50.104;20.010;2023-07-16T13:58:07;6.90;;;6.40;;
51174;SDS011;37240;50.104;20.010;2023-07-16T14:03:08;7.95;;;6.70;;
51174;SDS011;37240;50.104;20.010;2023-07-16T14:08:08;7.55;;;6.85;;
51174;SDS011;37240;50.104;20.010;2023-07-16T14:13:09;6.70;;;6.07;;
51174;SDS011;37240;50.104;20.010;2023-07-16T14:18:09;7.28;;;6.78;;
51174;SDS011;37240;50.104;20.010;2023-07-16T14:23:10;11.18;;;7.70;;
51174;SDS011;37240;50.104;20.010;2023-07-16T14:28:10;8.82;;;7.25;;
51174;SDS011;37240;50.104;20.010;2023-07-16T14:33:11;8.95;;;8.05;;
51174;SDS011;37240;50.104;20.010;2023-07-16T14:38:11;7.43;;;6.83;;
51174;SDS011;37240;50.104;20.010;2023-07-16T14:43:12;9.50;;;6.70;;
51174;SDS011;37240;50.104;20.010;2023-07-16T14:48:12;6.97;;;6.22;;
51174;SDS011;37240;50.104;20.010;2023-07-16T14:53:13;9.90;;;7.05;;
51174;SDS011;37240;50.104;20.010;2023-07-16T14:58:14;7.32;;;6.63;;
51174;SDS011;37240;50.104;20.010;2023-07-16T15:03:15;11.60;;;7.03;;
51174;SDS011;37240;50.104;20.010;2023-07-16T15:08:15;7.97;;;7.18;;
51174;SDS011;37240;50.104;20.010;2023-07-16T15:13:16;7.82;;;7.13;;
51174;SDS011;37240;50.104;20.010;2023-07-16T15:18:17;8.90;;;7.05;;
51174;SDS011;37240;50.104;20.010;2023-07-16T15:23:18;10.00;;;7.32;;
51174;SDS011;37240;50.104;20.010;2023-07-16T15:28:19;10.55;;;7.53;;
51174;SDS011;37240;50.104;20.010;2023-07-16T15:33:20;7.53;;;6.18;;
51174;SDS011;37240;50.104;20.010;2023-07-16T15:38:20;6.65;;;6.13;;
51174;SDS011;37240;50.104;20.010;2023-07-16T15:43:21;9.07;;;7.57;;
51174;SDS011;37240;50.104;20.010;2023-07-16T15:48:22;9.20;;;7.32;;
51174;SDS011;37240;50.104;20.010;2023-07-16T15:53:23;8.00;;;6.57;;
51174;SDS011;37240;50.104;20.010;2023-07-16T15:58:23;8.25;;;7.45;;
51174;SDS011;37240;50.104;20.010;2023-07-16T16:03:24;8.20;;;7.28;;
51174;SDS011;37240;50.104;20.010;2023-07-16T16:08:24;8.10;;;6.95;;
51174;SDS011;37240;50.104;20.010;2023-07-16T16:13:25;7.90;;;6.90;;
51174;SDS011;37240;50.104;20.010;2023-07-16T16:18:26;9.95;;;6.97;;
51174;SDS011;37240;50.104;20.010;2023-07-16T16:23:27;12.30;;;7.40;;
51174;SDS011;37240;50.104;20.010;2023-07-16T16:28:27;7.43;;;6.72;;
51174;SDS011;37240;50.104;20.010;2023-07-16T16:33:28;7.70;;;7.00;;
51174;SDS011;37240;50.104;20.010;2023-07-16T16:38:28;10.68;;;6.80;;
51174;SDS011;37240;50.104;20.010;2023-07-16T16:43:29;8.18;;;7.45;;
51174;SDS011;37240;50.104;20.010;2023-07-16T16:48:29;9.68;;;7.78;;
51174;SDS011;37240;50.104;20.010;2023-07-16T16:53:30;9.95;;;7.63;;
51174;SDS011;37240;50.104;20.010;2023-07-16T16:58:31;8.73;;;6.93;;
51174;SDS011;37240;50.104;20.010;2023-07-16T17:03:31;9.65;;;7.18;;
51174;SDS011;37240;50.104;20.010;2023-07-16T17:08:32;6.78;;;6.13;;
51174;SDS011;37240;50.104;20.010;2023-07-16T17:13:32;8.00;;;7.20;;
51174;SDS011;37240;50.104;20.010;2023-07-16T17:18:33;12.07;;;6.97;;
51174;SDS011;37240;50.104;20.010;2023-07-16T17:23:33;6.63;;;6.00;;
51174;SDS011;37240;50.104;20.010;2023-07-16T17:28:34;7.20;;;6.50;;
51174;SDS011;37240;50.104;20.010;2023-07-16T17:33:34;7.90;;;6.70;;
51174;SDS011;37240;50.104;20.010;2023-07-16T17:38:35;10.45;;;6.97;;
51174;SDS011;37240;50.104;20.010;2023-07-16T17:43:35;11.90;;;6.57;;
51174;SDS011;37240;50.104;20.010;2023-07-16T17:48:36;7.95;;;6.93;;
51174;SDS011;37240;50.104;20.010;2023-07-16T17:53:37;7.15;;;6.55;;
51174;SDS011;37240;50.104;20.010;2023-07-16T17:58:37;8.85;;;7.43;;
51174;SDS011;37240;50.104;20.010;2023-07-16T18:03:40;7.35;;;6.60;;
51174;SDS011;37240;50.104;20.010;2023-07-16T18:08:40;8.63;;;7.88;;
51174;SDS011;37240;50.104;20.010;2023-07-16T18:13:41;16.05;;;8.60;;
51174;SDS011;37240;50.104;20.010;2023-07-16T18:18:41;10.48;;;8.07;;
51174;SDS011;37240;50.104;20.010;2023-07-16T18:23:42;9.77;;;8.80;;
51174;SDS011;37240;50.104;20.010;2023-07-16T18:28:43;11.05;;;8.43;;
51174;SDS011;37240;50.104;20.010;2023-07-16T18:33:44;9.18;;;8.38;;
51174;SDS011;37240;50.104;20.010;2023-07-16T18:38:44;8.07;;;7.32;;
51174;SDS011;37240;50.104;20.010;2023-07-16T18:43:45;13.80;;;8.48;;
51174;SDS011;37240;50.104;20.010;2023-07-16T18:48:45;11.00;;;9.02;;
51174;SDS011;37240;50.104;20.010;2023-07-16T18:53:46;11.73;;;8.23;;
51174;SDS011;37240;50.104;20.010;2023-07-16T18:58:46;12.82;;;9.32;;
51174;SDS011;37240;50.104;20.010;2023-07-16T19:03:47;11.93;;;8.63;;
51174;SDS011;37240;50.104;20.010;2023-07-16T19:08:47;14.65;;;9.25;;
51174;SDS011;37240;50.104;20.010;2023-07-16T19:13:48;9.10;;;8.20;;
51174;SDS011;37240;50.104;20.010;2023-07-16T19:18:49;9.07;;;7.43;;
51174;SDS011;37240;50.104;20.010;2023-07-16T19:23:49;11.82;;;7.15;;
51174;SDS011;37240;50.104;20.010;2023-07-16T19:28:50;22.55;;;8.63;;
51174;SDS011;37240;50.104;20.010;2023-07-16T19:33:50;10.98;;;6.82;;
51174;SDS011;37240;50.104;20.010;2023-07-16T19:38:51;13.50;;;7.43;;
51174;SDS011;37240;50.104;20.010;2023-07-16T19:43:51;14.55;;;7.68;;
51174;SDS011;37240;50.104;20.010;2023-07-16T19:48:52;9.68;;;8.48;;
51174;SDS011;37240;50.104;20.010;2023-07-16T19:53:52;12.27;;;8.68;;
51174;SDS011;37240;50.104;20.010;2023-07-16T19:58:53;18.08;;;9.13;;
51174;SDS011;37240;50.104;20.010;2023-07-16T20:03:54;12.52;;;7.85;;
51174;SDS011;37240;50.104;20.010;2023-07-16T20:08:54;10.68;;;7.88;;
51174;SDS011;37240;50.104;20.010;2023-07-16T20:13:56;8.90;;;8.10;;
51174;SDS011;37240;50.104;20.010;2023-07-16T20:18:56;10.07;;;7.10;;
51174;SDS011;37240;50.104;20.010;2023-07-16T20:23:57;8.52;;;7.65;;
51174;SDS011;37240;50.104;20.010;2023-07-16T20:28:58;14.20;;;8.27;;
51174;SDS011;37240;50.104;20.010;2023-07-16T20:33:58;12.55;;;7.93;;
51174;SDS011;37240;50.104;20.010;2023-07-16T20:38:59;11.68;;;8.38;;
51174;SDS011;37240;50.104;20.010;2023-07-16T20:43:59;9.02;;;7.85;;
51174;SDS011;37240;50.104;20.010;2023-07-16T20:49:00;12.35;;;8.60;;
51174;SDS011;37240;50.104;20.010;2023-07-16T20:54:00;11.48;;;8.35;;
51174;SDS011;37240;50.104;20.010;2023-07-16T20:59:01;11.23;;;8.90;;
51174;SDS011;37240;50.104;20.010;2023-07-16T21:04:02;9.48;;;8.55;;
51174;SDS011;37240;50.104;20.010;2023-07-16T21:09:02;10.27;;;8.10;;
51174;SDS011;37240;50.104;20.010;2023-07-16T21:14:03;10.55;;;8.80;;
51174;SDS011;37240;50.104;20.010;2023-07-16T21:19:03;12.75;;;9.38;;
51174;SDS011;37240;50.104;20.010;2023-07-16T21:24:04;10.18;;;9.05;;
51174;SDS011;37240;50.104;20.010;2023-07-16T21:29:05;11.15;;;10.00;;
51174;SDS011;37240;50.104;20.010;2023-07-16T21:34:06;10.35;;;9.23;;
51174;SDS011;37240;50.104;20.010;2023-07-16T21:39:07;10.82;;;7.85;;
51174;SDS011;37240;50.104;20.010;2023-07-16T21:44:07;10.10;;;7.75;;
51174;SDS011;37240;50.104;20.010;2023-07-16T21:49:08;14.70;;;6.65;;
51174;SDS011;37240;50.104;20.010;2023-07-16T21:54:08;8.25;;;6.13;;
51174;SDS011;37240;50.104;20.010;2023-07-16T21:59:09;7.00;;;6.40;;
51174;SDS011;37240;50.104;20.010;2023-07-16T22:04:09;7.65;;;7.00;;
51174;SDS011;37240;50.104;20.010;2023-07-16T22:09:10;8.18;;;6.93;;
51174;SDS011;37240;50.104;20.010;2023-07-16T22:14:10;7.63;;;6.88;;
51174;SDS011;37240;50.104;20.010;2023-07-16T22:19:11;6.63;;;6.03;;
51174;SDS011;37240;50.104;20.010;2023-07-16T22:24:12;7.00;;;6.10;;
51174;SDS011;37240;50.104;20.010;2023-07-16T22:29:12;7.90;;;6.82;;
51174;SDS011;37240;50.104;20.010;2023-07-16T22:34:13;7.90;;;7.10;;
51174;SDS011;37240;50.104;20.010;2023-07-16T22:39:13;9.25;;;6.93;;
51174;SDS011;37240;50.104;20.010;2023-07-16T22:44:14;7.97;;;7.18;;
51174;SDS011;37240;50.104;20.010;2023-07-16T22:49:14;6.43;;;5.93;;
51174;SDS011;37240;50.104;20.010;2023-07-16T22:54:15;10.07;;;7.35;;
51174;SDS011;37240;50.104;20.010;2023-07-16T22:59:15;11.85;;;7.20;;
51174;SDS011;37240;50.104;20.010;2023-07-16T23:04:16;9.68;;;7.35;;
51174;SDS011;37240;50.104;20.010;2023-07-16T23:09:17;9.50;;;7.45;;
51174;SDS011;37240;50.104;20.010;2023-07-16T23:14:17;9.70;;;7.72;;
51174;SDS011;37240;50.104;20.010;2023-07-16T23:19:18;8.65;;;7.68;;
51174;SDS011;37240;50.104;20.010;2023-07-16T23:24:18;17.55;;;7.63;;
51174;SDS011;37240;50.104;20.010;2023-07-16T23:29:19;7.65;;;6.90;;
51174;SDS011;37240;50.104;20.010;2023-07-16T23:34:19;8.88;;;7.18;;
51174;SDS011;37240;50.104;20.010;2023-07-16T23:39:20;7.15;;;6.55;;
51174;SDS011;37240;50.104;20.010;2023-07-16T23:44:20;6.88;;;6.22;;
51174;SDS011;37240;50.104;20.010;2023-07-16T23:49:21;6.38;;;5.80;;
51174;SDS011;37240;50.104;20.010;2023-07-16T23:54:22;8.27;;;5.90;;
51174;SDS011;37240;50.104;20.010;2023-07-16T23:59:23;5.93;;;5.43;;
